Ashland, WV

5:04 PM EDT on August 21, 2014 (GMT -0400)
185 Beeson rd | Change Station
CLOSE
Current Station
Personal Weather Station
Location: Lashmeet, WV
Elevation: 2513 ft
Nearby Weather Stations
Active Advisory: Special Statement

Elev 2513 ft 37.42 °N, 81.20 °W | Updated 5 seconds ago

Overcast
Overcast
80.8 °F
Feels Like 84 °F
N
4.0
Wind Variable Wind from NE
Gusts 4.0 mph

Today
High -- | Low -- °F
--% Chance of Precip.
Yesterday
High -- | Low -- °F
Precip. -- in
6:46 AM 8:09 PM
Waning Crescent, 12% visible
Pressure 30.10 in
Visibility 10.0 miles
Clouds Scattered Clouds 2500 ft
Scattered Clouds 3000 ft
Mostly Cloudy 3600 ft
Heat Index 84 °F
Dew Point 69 °F
Humidity 68%
Rainfall 0.00 in
Snow Depth Not available.
UV 3 out of 12
Pollen 9.30 out of 12
Air Quality Not available.
Flu Activity Not available.
METAR KBLF 212052Z AUTO 24017G28KT 10SM TS SCT025 SCT030 BKN036 25/18 A3020 RMK AO2 PK WND 27028/2049 TSB44 PRESRR SLP192 T02500183 55005

More Conditions Fewer Conditions

Pressure 30.10 in
Visibility 10.0 miles
Clouds Scattered Clouds 2500 ft
Scattered Clouds 3000 ft
Mostly Cloudy 3600 ft
Heat Index 84 °F
Dew Point 69 °F
Humidity 68%
Rainfall 0.00 in
Snow Depth Not available.
UV 3 out of 12
Pollen 9.30 out of 12
Air Quality Not available.
Flu Activity Not available.
METAR KBLF 212052Z AUTO 24017G28KT 10SM TS SCT025 SCT030 BKN036 25/18 A3020 RMK AO2 PK WND 27028/2049 TSB44 PRESRR SLP192 T02500183 55005

More Conditions Fewer Conditions

10-Day Weather Forecast

Almanac

Astronomy

Aug. 21, 2014 Rise Set
Actual Time 6:46 AM EDT 8:09 PM EDT
Civil Twilight 6:19 AM EDT 8:37 PM EDT
Nautical Twilight 5:46 AM EDT 9:09 PM EDT
Astronomical Twilight 5:12 AM EDT 9:44 PM EDT
Moon 3:18 AM EDT 5:36 PM EDT
Length of Visible Light 14h 17m
Length of Day
13h 23m
Tomorrow will be 2m 12s shorter.
Waning Crescent, 12% of the Moon is Illuminated
Today
Waning Crescent
Aug 25
New
Sep 2
First Quarter
Sep 8
Full
Sep 15
Last Quarter

Today's Extremes

State Highs State Lows

Community

WunderPhotos

Upload Photos

1,746,019 photos uploaded!

WunderBlogs® & News

Nearby

Snow Depth

Station Depth Elevation
No new snow has been reported.

Earthquake Activity

City Distance Mag. Time & Date
No recent earthquake activity has been reported nearby.
Minimum magnitude displayed is 2.5.

Coastal Water Temperatures

Place Temperature
No Stations Reporting

Nearby Weather Stations